createdAt,value
2017-03-29T00:00:21.807Z,0
2017-03-29T00:01:23.241Z,0
2017-03-29T00:02:24.672Z,0
2017-03-29T00:03:26.099Z,0
2017-03-29T00:04:27.527Z,0
2017-03-29T00:05:28.955Z,0
2017-03-29T00:06:30.395Z,0
2017-03-29T00:07:31.817Z,0
2017-03-29T00:08:33.258Z,0
2017-03-29T00:09:34.691Z,0
2017-03-29T00:10:36.120Z,0
2017-03-29T00:11:37.545Z,0
2017-03-29T00:12:38.970Z,0
2017-03-29T00:13:40.411Z,0
2017-03-29T00:14:41.861Z,0
2017-03-29T00:15:43.279Z,0
2017-03-29T00:16:44.712Z,0
2017-03-29T00:17:46.148Z,0
2017-03-29T00:18:47.579Z,0
2017-03-29T00:19:49.015Z,0
2017-03-29T00:20:50.444Z,0
2017-03-29T00:21:51.883Z,0
2017-03-29T00:22:53.309Z,0
2017-03-29T00:23:54.740Z,0
2017-03-29T00:24:56.176Z,0
2017-03-29T00:25:57.608Z,0
2017-03-29T00:26:59.091Z,0
2017-03-29T00:28:00.519Z,0
2017-03-29T00:29:01.951Z,0
2017-03-29T00:30:03.387Z,0
2017-03-29T00:31:04.882Z,0
2017-03-29T00:32:06.324Z,0
2017-03-29T00:33:07.747Z,0
2017-03-29T00:34:09.175Z,0
2017-03-29T00:35:10.604Z,0
2017-03-29T00:36:12.034Z,0
2017-03-29T00:37:13.472Z,0
2017-03-29T00:38:14.895Z,0
2017-03-29T00:39:16.328Z,0
2017-03-29T00:40:18.320Z,0
2017-03-29T00:41:19.751Z,0
2017-03-29T00:42:21.184Z,0
2017-03-29T00:43:22.611Z,0
2017-03-29T00:44:24.039Z,0
2017-03-29T00:45:25.471Z,0
2017-03-29T00:46:27.647Z,0
2017-03-29T00:47:29.077Z,0
2017-03-29T00:48:30.505Z,0
2017-03-29T00:49:32.480Z,0
2017-03-29T00:50:33.917Z,0
2017-03-29T00:51:36.291Z,0
2017-03-29T00:52:37.720Z,0
2017-03-29T00:53:39.148Z,0
2017-03-29T00:54:40.581Z,0
2017-03-29T00:55:42.008Z,0
2017-03-29T00:56:43.445Z,0
2017-03-29T00:57:44.871Z,0
2017-03-29T00:58:46.304Z,0
2017-03-29T00:59:47.734Z,0
2017-03-29T01:00:49.159Z,0
2017-03-29T01:01:50.594Z,0
2017-03-29T01:02:52.026Z,0
2017-03-29T01:03:54.276Z,0
2017-03-29T01:04:55.699Z,0
2017-03-29T01:05:57.129Z,0
2017-03-29T01:06:58.562Z,0
2017-03-29T01:07:59.994Z,0
2017-03-29T01:09:01.418Z,0
2017-03-29T01:10:02.851Z,0
2017-03-29T01:11:04.289Z,0
2017-03-29T01:12:05.723Z,0
2017-03-29T01:13:07.148Z,0
2017-03-29T01:14:08.586Z,0
2017-03-29T01:15:10.008Z,0
2017-03-29T01:16:11.461Z,0
2017-03-29T01:17:12.888Z,0
2017-03-29T01:18:14.315Z,0
2017-03-29T01:19:15.738Z,0
2017-03-29T01:20:17.168Z,0
2017-03-29T01:21:18.594Z,0
2017-03-29T01:22:20.032Z,0
2017-03-29T01:23:21.465Z,0
2017-03-29T01:24:22.903Z,0
2017-03-29T01:25:24.327Z,0
2017-03-29T01:26:25.755Z,0
2017-03-29T01:27:27.193Z,0
2017-03-29T01:28:28.628Z,0
2017-03-29T01:29:30.054Z,0
2017-03-29T01:30:31.477Z,0
2017-03-29T01:31:32.912Z,0
2017-03-29T01:32:34.340Z,0
2017-03-29T01:33:35.774Z,0
2017-03-29T01:34:37.305Z,0
2017-03-29T01:35:38.776Z,0
2017-03-29T01:36:40.207Z,0
2017-03-29T01:37:41.626Z,0
2017-03-29T01:38:43.054Z,0
2017-03-29T01:39:44.490Z,0
2017-03-29T01:40:45.916Z,0
2017-03-29T01:41:47.345Z,0
2017-03-29T01:42:49.524Z,0
2017-03-29T01:43:50.957Z,0
2017-03-29T01:44:52.379Z,0
2017-03-29T01:45:53.813Z,0
2017-03-29T01:46:55.245Z,0
2017-03-29T01:47:56.668Z,0
2017-03-29T01:48:58.089Z,0
2017-03-29T01:49:59.526Z,0
2017-03-29T01:51:00.954Z,0
2017-03-29T01:52:02.382Z,0
2017-03-29T01:53:03.812Z,0
2017-03-29T01:54:05.241Z,0
2017-03-29T01:55:06.676Z,0
2017-03-29T01:56:08.099Z,0
2017-03-29T01:57:09.534Z,0
2017-03-29T01:58:10.961Z,0
2017-03-29T01:59:12.392Z,0
2017-03-29T02:00:13.820Z,0
2017-03-29T02:01:15.257Z,0
2017-03-29T02:02:16.690Z,0
2017-03-29T02:03:18.120Z,0
2017-03-29T02:04:19.547Z,0
2017-03-29T02:05:20.977Z,0
2017-03-29T02:06:22.414Z,0
2017-03-29T02:07:23.834Z,0
2017-03-29T02:08:25.263Z,0
2017-03-29T02:09:26.692Z,0
2017-03-29T02:10:28.119Z,0
2017-03-29T02:11:29.553Z,0
2017-03-29T02:12:30.981Z,0
2017-03-29T02:13:32.412Z,0
2017-03-29T02:14:33.839Z,0
2017-03-29T02:15:35.270Z,0
2017-03-29T02:16:36.702Z,0
2017-03-29T02:17:38.131Z,0
2017-03-29T02:18:39.566Z,0
2017-03-29T02:19:40.999Z,0
2017-03-29T02:20:42.427Z,0
2017-03-29T02:21:43.859Z,0
2017-03-29T02:22:45.289Z,0
2017-03-29T02:23:46.717Z,0
2017-03-29T02:24:48.148Z,0
2017-03-29T02:25:49.583Z,0
2017-03-29T02:26:51.012Z,0
2017-03-29T02:27:52.455Z,0
2017-03-29T02:28:53.865Z,0
2017-03-29T02:29:55.305Z,0
2017-03-29T02:30:56.765Z,0
2017-03-29T02:31:58.193Z,0
2017-03-29T02:32:59.618Z,0
2017-03-29T02:34:01.047Z,0
2017-03-29T02:35:02.481Z,0
2017-03-29T02:36:03.909Z,0
2017-03-29T02:37:05.403Z,0
2017-03-29T02:38:06.839Z,0
2017-03-29T02:39:08.274Z,0
2017-03-29T02:40:09.699Z,0
2017-03-29T02:41:11.130Z,0
2017-03-29T02:42:12.552Z,0
2017-03-29T02:43:13.984Z,0
2017-03-29T02:44:15.418Z,0
2017-03-29T02:45:16.971Z,0
2017-03-29T02:46:18.402Z,0
2017-03-29T02:47:19.831Z,0
2017-03-29T02:48:21.259Z,0
2017-03-29T02:49:22.687Z,0
2017-03-29T02:50:24.116Z,0
2017-03-29T02:51:25.610Z,0
2017-03-29T02:52:27.063Z,0
2017-03-29T02:53:28.486Z,0
2017-03-29T02:54:29.922Z,0
2017-03-29T02:55:31.350Z,0
2017-03-29T02:56:32.873Z,0
2017-03-29T02:57:34.294Z,0
2017-03-29T02:58:35.730Z,0
2017-03-29T02:59:37.162Z,0
2017-03-29T03:00:38.617Z,0
2017-03-29T03:01:40.039Z,0
2017-03-29T03:02:41.464Z,0
2017-03-29T03:03:42.899Z,0
2017-03-29T03:04:44.324Z,0
2017-03-29T03:05:45.762Z,0
2017-03-29T03:06:47.192Z,0
2017-03-29T03:07:48.652Z,0
2017-03-29T03:08:50.076Z,0
2017-03-29T03:09:51.611Z,0
2017-03-29T03:10:53.086Z,0
2017-03-29T03:11:54.539Z,0
2017-03-29T03:12:55.985Z,0
2017-03-29T03:13:57.434Z,0
2017-03-29T03:14:58.870Z,0
2017-03-29T03:16:00.298Z,0
2017-03-29T03:17:01.735Z,0
2017-03-29T03:18:03.166Z,0
2017-03-29T03:19:04.634Z,0
2017-03-29T03:20:06.061Z,0
2017-03-29T03:21:07.525Z,0
2017-03-29T03:22:08.949Z,0
2017-03-29T03:23:10.375Z,0
2017-03-29T03:24:11.798Z,0
2017-03-29T03:25:13.225Z,0
2017-03-29T03:26:14.711Z,0
2017-03-29T03:27:16.136Z,0
2017-03-29T03:28:17.640Z,0
2017-03-29T03:29:19.094Z,0
2017-03-29T03:30:20.533Z,0
2017-03-29T03:31:21.955Z,0
2017-03-29T03:32:23.404Z,0
2017-03-29T03:33:24.887Z,0
2017-03-29T03:34:26.321Z,0
2017-03-29T03:35:27.745Z,0
2017-03-29T03:36:29.238Z,0
2017-03-29T03:37:30.665Z,0
2017-03-29T03:38:32.092Z,0
2017-03-29T03:39:34.308Z,0
2017-03-29T03:40:35.738Z,0
2017-03-29T03:41:37.163Z,0
2017-03-29T03:42:38.587Z,0
2017-03-29T03:43:40.008Z,0
2017-03-29T03:44:41.433Z,0
2017-03-29T03:45:42.870Z,0
2017-03-29T03:46:44.296Z,0
2017-03-29T03:47:45.730Z,0
2017-03-29T03:48:47.157Z,0
2017-03-29T03:49:48.587Z,0
2017-03-29T03:50:50.015Z,0
2017-03-29T03:51:51.438Z,0
2017-03-29T03:52:52.871Z,0
2017-03-29T03:53:54.297Z,0
2017-03-29T03:54:55.726Z,0
2017-03-29T03:55:57.153Z,0
2017-03-29T03:56:58.581Z,0
2017-03-29T03:58:00.007Z,0
2017-03-29T03:59:01.438Z,0
2017-03-29T04:00:02.869Z,0
2017-03-29T04:01:04.295Z,0
2017-03-29T04:02:05.718Z,0
2017-03-29T04:03:07.145Z,0
2017-03-29T04:04:08.577Z,0
2017-03-29T04:05:10.011Z,0
2017-03-29T04:06:11.443Z,0
2017-03-29T04:07:12.871Z,0
2017-03-29T04:08:14.299Z,0
2017-03-29T04:09:15.731Z,0
2017-03-29T04:10:17.159Z,0
2017-03-29T04:11:18.589Z,0
2017-03-29T04:12:20.016Z,0
2017-03-29T04:13:21.446Z,0
2017-03-29T04:14:22.881Z,0
2017-03-29T04:15:24.308Z,0
2017-03-29T04:16:25.736Z,0
2017-03-29T04:17:27.164Z,0
2017-03-29T04:18:28.592Z,0
2017-03-29T04:19:30.024Z,0
2017-03-29T04:20:31.448Z,0
2017-03-29T04:21:32.877Z,0
2017-03-29T04:22:34.309Z,0
2017-03-29T04:23:35.737Z,0
2017-03-29T04:24:37.167Z,0
2017-03-29T04:25:38.608Z,0
2017-03-29T04:26:40.071Z,0
2017-03-29T04:27:41.501Z,0
2017-03-29T04:28:43.816Z,0
2017-03-29T04:29:45.241Z,0
2017-03-29T04:30:46.679Z,0
2017-03-29T04:31:48.104Z,0
2017-03-29T04:32:49.606Z,0
2017-03-29T04:33:51.031Z,0
2017-03-29T04:34:52.475Z,0
2017-03-29T04:35:53.919Z,0
2017-03-29T04:36:55.338Z,0
2017-03-29T04:37:56.766Z,0
2017-03-29T04:38:58.726Z,0
2017-03-29T04:40:00.155Z,0
2017-03-29T04:41:01.579Z,0
2017-03-29T04:42:03.009Z,0
2017-03-29T04:43:04.431Z,0
2017-03-29T04:44:05.858Z,0
2017-03-29T04:45:07.291Z,0
2017-03-29T04:46:08.717Z,0
2017-03-29T04:47:10.145Z,0
2017-03-29T04:48:11.574Z,0
2017-03-29T04:49:12.994Z,0
2017-03-29T04:50:14.423Z,0
2017-03-29T04:51:16.371Z,0
2017-03-29T04:52:17.798Z,0
2017-03-29T04:53:19.227Z,0
2017-03-29T04:54:20.652Z,0
2017-03-29T04:55:22.078Z,0
2017-03-29T04:56:23.503Z,0
2017-03-29T04:57:24.935Z,0
2017-03-29T04:58:26.362Z,0
2017-03-29T04:59:27.788Z,0
2017-03-29T05:00:29.220Z,0
2017-03-29T05:01:30.644Z,0
2017-03-29T05:02:32.078Z,0
2017-03-29T05:03:33.502Z,0
2017-03-29T05:04:34.931Z,0
2017-03-29T05:05:36.358Z,0
2017-03-29T05:06:37.782Z,0
2017-03-29T05:07:39.212Z,0
2017-03-29T05:08:40.640Z,0
2017-03-29T05:09:42.073Z,0
2017-03-29T05:10:43.500Z,0
2017-03-29T05:11:44.935Z,0
2017-03-29T05:12:46.357Z,0
2017-03-29T05:13:47.788Z,0
2017-03-29T05:14:49.218Z,0
2017-03-29T05:15:50.659Z,0
2017-03-29T05:16:52.089Z,0
2017-03-29T05:17:53.516Z,5
2017-03-29T05:18:54.943Z,5
2017-03-29T05:19:56.373Z,5
2017-03-29T05:20:57.805Z,5
2017-03-29T05:21:59.235Z,5
2017-03-29T05:23:00.660Z,5
2017-03-29T05:24:02.097Z,5
2017-03-29T05:25:03.532Z,5
2017-03-29T05:26:04.963Z,5
2017-03-29T05:27:06.401Z,5
2017-03-29T05:28:07.826Z,5
2017-03-29T05:29:09.256Z,5
2017-03-29T05:30:10.698Z,10
2017-03-29T05:31:12.128Z,10
2017-03-29T05:32:13.559Z,10
2017-03-29T05:33:15.004Z,10
2017-03-29T05:34:16.436Z,10
2017-03-29T05:35:17.863Z,10
2017-03-29T05:36:19.318Z,10
2017-03-29T05:37:20.813Z,15
2017-03-29T05:38:22.266Z,15
2017-03-29T05:39:23.698Z,15
2017-03-29T05:40:25.131Z,15
2017-03-29T05:41:26.560Z,15
2017-03-29T05:42:28.008Z,15
2017-03-29T05:43:29.444Z,15
2017-03-29T05:44:30.875Z,15
2017-03-29T05:45:32.307Z,20
2017-03-29T05:46:33.739Z,20
2017-03-29T05:47:35.174Z,20
2017-03-29T05:48:36.624Z,20
2017-03-29T05:49:38.058Z,20
2017-03-29T05:50:39.489Z,25
2017-03-29T05:51:40.925Z,25
2017-03-29T05:52:42.351Z,25
2017-03-29T05:53:43.776Z,25
2017-03-29T05:54:45.213Z,25
2017-03-29T05:55:46.665Z,25
2017-03-29T05:56:48.102Z,25
2017-03-29T05:57:49.532Z,25
2017-03-29T05:58:50.971Z,25
2017-03-29T05:59:52.405Z,25
2017-03-29T06:00:53.839Z,30
2017-03-29T06:01:55.263Z,30
2017-03-29T06:02:56.695Z,30
2017-03-29T06:03:59.070Z,30
2017-03-29T06:05:00.957Z,30
2017-03-29T06:06:02.393Z,30
2017-03-29T06:07:03.831Z,35
2017-03-29T06:08:06.231Z,35
2017-03-29T06:09:08.175Z,40
2017-03-29T06:10:10.134Z,40
2017-03-29T06:11:11.549Z,40
2017-03-29T06:12:13.857Z,35
2017-03-29T06:13:15.292Z,40
2017-03-29T06:14:16.720Z,40
2017-03-29T06:15:18.148Z,40
2017-03-29T06:16:19.587Z,40
2017-03-29T06:17:21.014Z,40
2017-03-29T06:18:22.445Z,40
2017-03-29T06:19:23.892Z,35
2017-03-29T06:20:25.332Z,35
2017-03-29T06:21:26.760Z,35
2017-03-29T06:22:28.194Z,35
2017-03-29T06:23:29.633Z,35
2017-03-29T06:24:31.064Z,35
2017-03-29T06:25:32.494Z,35
2017-03-29T06:26:33.932Z,35
2017-03-29T06:27:35.358Z,40
2017-03-29T06:28:36.796Z,40
2017-03-29T06:29:38.229Z,40
2017-03-29T06:30:39.657Z,40
2017-03-29T06:31:41.091Z,40
2017-03-29T06:32:42.531Z,40
2017-03-29T06:33:43.967Z,40
2017-03-29T06:34:45.401Z,40
2017-03-29T06:35:46.830Z,40
2017-03-29T06:36:49.124Z,40
2017-03-29T06:37:50.570Z,40
2017-03-29T06:38:52.001Z,40
2017-03-29T06:39:53.535Z,40
2017-03-29T06:40:54.965Z,40
2017-03-29T06:41:56.402Z,40
2017-03-29T06:42:57.842Z,15
2017-03-29T06:43:59.282Z,30
2017-03-29T06:45:00.716Z,30
2017-03-29T06:46:02.150Z,30
2017-03-29T06:47:03.603Z,35
2017-03-29T06:48:05.044Z,35
2017-03-29T06:49:06.476Z,35
2017-03-29T06:50:07.912Z,40
2017-03-29T06:51:09.348Z,40
2017-03-29T06:52:10.784Z,45
2017-03-29T06:53:12.211Z,50
2017-03-29T06:54:13.649Z,55
2017-03-29T06:55:15.088Z,55
2017-03-29T06:56:16.522Z,55
2017-03-29T06:57:17.951Z,55
2017-03-29T06:58:20.240Z,55
2017-03-29T06:59:21.670Z,60
2017-03-29T07:00:23.105Z,60
2017-03-29T07:01:24.541Z,60
2017-03-29T07:02:25.975Z,60
2017-03-29T07:03:27.415Z,30
2017-03-29T07:04:28.932Z,65
2017-03-29T07:05:30.329Z,65
2017-03-29T07:06:31.660Z,65
2017-03-29T07:07:33.102Z,65
2017-03-29T07:08:34.536Z,65
2017-03-29T07:09:35.976Z,70
2017-03-29T07:10:37.418Z,70
2017-03-29T07:11:38.848Z,70
2017-03-29T07:12:40.283Z,70
2017-03-29T07:13:41.725Z,75
2017-03-29T07:14:43.163Z,75
2017-03-29T07:15:44.604Z,80
2017-03-29T07:16:46.041Z,85
2017-03-29T07:17:47.476Z,85
2017-03-29T07:18:48.917Z,80
2017-03-29T07:19:50.351Z,80
2017-03-29T07:20:51.782Z,80
2017-03-29T07:21:53.209Z,80
2017-03-29T07:22:54.641Z,75
2017-03-29T07:23:56.073Z,75
2017-03-29T07:24:57.507Z,70
2017-03-29T07:25:58.945Z,75
2017-03-29T07:27:00.369Z,75
2017-03-29T07:28:01.805Z,80
2017-03-29T07:29:03.238Z,85
2017-03-29T07:30:04.669Z,85
2017-03-29T07:31:06.106Z,95
2017-03-29T07:32:07.543Z,95
2017-03-29T07:33:08.977Z,90
2017-03-29T07:34:10.408Z,85
2017-03-29T07:35:11.841Z,90
2017-03-29T07:36:13.285Z,95
2017-03-29T07:37:14.713Z,95
2017-03-29T07:38:16.141Z,95
2017-03-29T07:39:17.580Z,100
2017-03-29T07:40:19.013Z,100
2017-03-29T07:41:20.449Z,100
2017-03-29T07:42:21.881Z,95
2017-03-29T07:43:23.344Z,95
2017-03-29T07:44:24.781Z,90
2017-03-29T07:45:26.209Z,90
2017-03-29T07:46:27.647Z,95
2017-03-29T07:47:29.086Z,100
2017-03-29T07:48:30.523Z,105
2017-03-29T07:49:31.960Z,110
2017-03-29T07:50:33.405Z,110
2017-03-29T07:51:34.908Z,105
2017-03-29T07:52:36.342Z,100
2017-03-29T07:53:40.749Z,110
2017-03-29T07:54:42.194Z,115
2017-03-29T07:55:43.631Z,120
2017-03-29T07:56:45.073Z,120
2017-03-29T07:57:46.511Z,115
2017-03-29T07:58:47.946Z,110
2017-03-29T07:59:49.381Z,110
2017-03-29T08:00:50.826Z,90
2017-03-29T08:01:52.265Z,125
2017-03-29T08:02:53.703Z,130
2017-03-29T08:03:55.135Z,130
2017-03-29T08:04:56.571Z,125
2017-03-29T08:05:58.002Z,120
2017-03-29T08:06:59.433Z,125
2017-03-29T08:08:00.877Z,120
2017-03-29T08:09:02.309Z,125
2017-03-29T08:10:03.749Z,135
2017-03-29T08:11:05.188Z,135
2017-03-29T08:12:06.650Z,130
2017-03-29T08:13:08.099Z,125
2017-03-29T08:14:09.527Z,120
2017-03-29T08:15:10.962Z,115
2017-03-29T08:16:12.395Z,125
2017-03-29T08:17:13.826Z,120
2017-03-29T08:18:15.270Z,115
2017-03-29T08:19:16.698Z,105
2017-03-29T08:20:18.137Z,100
2017-03-29T08:21:19.574Z,100
2017-03-29T08:22:21.007Z,95
2017-03-29T08:23:22.445Z,95
2017-03-29T08:24:24.611Z,90
2017-03-29T08:25:26.137Z,95
2017-03-29T08:26:27.576Z,95
2017-03-29T08:27:29.065Z,100
2017-03-29T08:28:30.502Z,105
2017-03-29T08:29:31.937Z,110
2017-03-29T08:30:33.373Z,110
2017-03-29T08:31:34.816Z,120
2017-03-29T08:32:36.263Z,125
2017-03-29T08:33:37.694Z,130
2017-03-29T08:34:39.170Z,130
2017-03-29T08:35:40.612Z,115
2017-03-29T08:36:42.047Z,100
2017-03-29T08:37:43.530Z,105
2017-03-29T08:38:44.971Z,115
2017-03-29T08:39:46.411Z,130
2017-03-29T08:40:47.843Z,145
2017-03-29T08:41:49.283Z,155
2017-03-29T08:42:50.715Z,150
2017-03-29T08:43:52.149Z,140
2017-03-29T08:44:53.587Z,130
2017-03-29T08:45:55.026Z,130
2017-03-29T08:46:56.470Z,120
2017-03-29T08:47:57.905Z,120
2017-03-29T08:48:59.383Z,125
2017-03-29T08:50:00.825Z,135
2017-03-29T08:51:02.255Z,125
2017-03-29T08:52:03.714Z,130
2017-03-29T08:53:05.137Z,140
2017-03-29T08:54:06.577Z,145
2017-03-29T08:55:08.020Z,145
2017-03-29T08:56:09.498Z,140
2017-03-29T08:57:10.937Z,140
2017-03-29T08:58:12.379Z,140
2017-03-29T08:59:13.817Z,140
2017-03-29T09:00:16.291Z,135
2017-03-29T09:01:17.755Z,130
2017-03-29T09:02:19.208Z,120
2017-03-29T09:03:20.672Z,105
2017-03-29T09:04:22.097Z,110
2017-03-29T09:05:23.532Z,110
2017-03-29T09:06:26.613Z,115
2017-03-29T09:07:28.042Z,120
2017-03-29T09:08:31.177Z,115
2017-03-29T09:09:33.387Z,120
2017-03-29T09:10:35.403Z,120
2017-03-29T09:11:37.586Z,110
2017-03-29T09:12:39.021Z,105
2017-03-29T09:13:40.461Z,110
2017-03-29T09:14:43.245Z,105
2017-03-29T09:15:43.768Z,105
2017-03-29T09:16:45.209Z,105
2017-03-29T09:17:46.647Z,110
2017-03-29T09:18:48.079Z,115
2017-03-29T09:19:50.028Z,105
2017-03-29T09:20:51.470Z,100
2017-03-29T09:21:53.409Z,105
2017-03-29T09:22:54.862Z,115
2017-03-29T09:23:56.888Z,135
2017-03-29T09:24:58.329Z,145
2017-03-29T09:25:59.761Z,150
2017-03-29T09:27:01.201Z,165
2017-03-29T09:28:02.639Z,180
2017-03-29T09:29:04.073Z,160
2017-03-29T09:30:05.505Z,170
2017-03-29T09:31:06.940Z,170
2017-03-29T09:32:08.384Z,175
2017-03-29T09:33:09.817Z,185
2017-03-29T09:34:11.254Z,185
2017-03-29T09:35:12.685Z,175
2017-03-29T09:36:14.125Z,155
2017-03-29T09:37:15.562Z,140
2017-03-29T09:38:17.001Z,150
2017-03-29T09:39:18.440Z,150
2017-03-29T09:40:20.410Z,150
2017-03-29T09:41:21.858Z,155
2017-03-29T09:42:23.287Z,165
2017-03-29T09:43:24.732Z,155
2017-03-29T09:44:26.169Z,165
2017-03-29T09:45:27.616Z,160
2017-03-29T09:46:29.061Z,180
2017-03-29T09:47:30.521Z,185
2017-03-29T09:48:31.953Z,175
2017-03-29T09:49:33.391Z,170
2017-03-29T09:50:34.871Z,175
2017-03-29T09:51:36.312Z,180
2017-03-29T09:52:37.749Z,185
2017-03-29T09:53:40.598Z,205
2017-03-29T09:54:42.044Z,185
2017-03-29T09:55:44.142Z,180
2017-03-29T09:56:45.578Z,170
2017-03-29T09:57:47.022Z,170
2017-03-29T09:58:49.095Z,165
2017-03-29T09:59:50.525Z,155
2017-03-29T10:00:52.757Z,175
2017-03-29T10:01:53.355Z,160
2017-03-29T10:02:55.283Z,160
2017-03-29T10:03:56.722Z,150
2017-03-29T10:04:58.161Z,175
2017-03-29T10:06:00.376Z,170
2017-03-29T10:07:01.809Z,155
2017-03-29T10:08:03.245Z,155
2017-03-29T10:09:04.690Z,175
2017-03-29T10:10:06.135Z,180
2017-03-29T10:11:07.654Z,165
2017-03-29T10:12:09.082Z,160
2017-03-29T10:13:10.520Z,155
2017-03-29T10:14:11.952Z,130
2017-03-29T10:15:13.387Z,125
2017-03-29T10:16:14.822Z,120
2017-03-29T10:17:16.266Z,105
2017-03-29T10:18:17.700Z,115
2017-03-29T10:19:19.132Z,110
2017-03-29T10:20:20.567Z,105
2017-03-29T10:21:22.006Z,80
2017-03-29T10:22:23.447Z,75
2017-03-29T10:23:24.950Z,115
2017-03-29T10:24:26.392Z,120
2017-03-29T10:25:27.835Z,105
2017-03-29T10:26:29.278Z,85
2017-03-29T10:27:30.720Z,105
2017-03-29T10:28:32.158Z,105
2017-03-29T10:29:33.596Z,55
2017-03-29T10:30:35.081Z,85
2017-03-29T10:31:36.515Z,85
2017-03-29T10:32:38.770Z,85
2017-03-29T10:33:39.347Z,90
2017-03-29T10:34:40.805Z,90
2017-03-29T10:35:42.238Z,100
2017-03-29T10:36:43.673Z,95
2017-03-29T10:37:45.109Z,115
2017-03-29T10:38:46.551Z,130
2017-03-29T10:39:47.986Z,115
2017-03-29T10:40:49.428Z,125
2017-03-29T10:41:50.858Z,115
2017-03-29T10:42:52.300Z,150
2017-03-29T10:43:53.756Z,170
2017-03-29T10:44:55.196Z,205
2017-03-29T10:45:56.640Z,150
2017-03-29T10:46:58.084Z,95
2017-03-29T10:47:59.526Z,115
2017-03-29T10:49:00.965Z,125
2017-03-29T10:50:02.407Z,120
2017-03-29T10:51:03.845Z,125
2017-03-29T10:52:05.279Z,115
2017-03-29T10:53:06.823Z,95
2017-03-29T10:54:09.110Z,95
2017-03-29T10:55:10.549Z,115
2017-03-29T10:56:11.988Z,130
2017-03-29T10:57:13.436Z,125
2017-03-29T10:58:14.865Z,115
2017-03-29T10:59:16.306Z,110
2017-03-29T11:00:17.748Z,125
2017-03-29T11:01:19.182Z,90
2017-03-29T11:02:21.453Z,80
2017-03-29T11:03:22.892Z,100
2017-03-29T11:04:24.327Z,105
2017-03-29T11:05:25.767Z,95
2017-03-29T11:06:27.202Z,100
2017-03-29T11:07:28.637Z,100
2017-03-29T11:08:30.076Z,90
2017-03-29T11:09:31.527Z,85
2017-03-29T11:10:32.956Z,80
2017-03-29T11:11:34.393Z,75
2017-03-29T11:12:35.839Z,65
2017-03-29T11:13:37.283Z,75
2017-03-29T11:14:38.722Z,85
2017-03-29T11:15:40.171Z,80
2017-03-29T11:16:41.656Z,80
2017-03-29T11:17:43.087Z,85
2017-03-29T11:18:44.539Z,90
2017-03-29T11:19:45.980Z,75
2017-03-29T11:20:47.427Z,70
2017-03-29T11:21:48.875Z,80
2017-03-29T11:22:50.318Z,70
2017-03-29T11:23:51.754Z,75
2017-03-29T11:24:53.187Z,90
2017-03-29T11:25:54.625Z,95
2017-03-29T11:26:56.058Z,95
2017-03-29T11:27:57.490Z,95
2017-03-29T11:28:58.933Z,105
2017-03-29T11:30:00.376Z,120
2017-03-29T11:31:01.812Z,115
2017-03-29T11:32:03.238Z,100
2017-03-29T11:33:04.679Z,115
2017-03-29T11:34:06.109Z,120
2017-03-29T11:35:07.542Z,130
2017-03-29T11:36:08.981Z,115
2017-03-29T11:37:10.421Z,110
2017-03-29T11:38:11.861Z,110
2017-03-29T11:39:13.311Z,120
2017-03-29T11:40:14.772Z,100
2017-03-29T11:41:16.204Z,85
2017-03-29T11:42:17.640Z,95
2017-03-29T11:43:19.084Z,95
2017-03-29T11:44:20.523Z,85
2017-03-29T11:45:21.963Z,90
2017-03-29T11:46:23.396Z,80
2017-03-29T11:47:24.824Z,75
2017-03-29T11:48:26.266Z,70
2017-03-29T11:49:27.691Z,75
2017-03-29T11:50:29.128Z,80
2017-03-29T11:51:31.407Z,85
2017-03-29T11:52:32.837Z,125
2017-03-29T11:53:34.273Z,170
2017-03-29T11:54:35.703Z,180
2017-03-29T11:55:37.142Z,180
2017-03-29T11:56:39.440Z,165
2017-03-29T11:57:40.873Z,190
2017-03-29T11:58:42.306Z,185
2017-03-29T11:59:43.749Z,185
2017-03-29T12:00:45.197Z,170
2017-03-29T12:01:46.630Z,155
2017-03-29T12:02:48.072Z,150
2017-03-29T12:03:49.505Z,140
2017-03-29T12:04:50.938Z,155
2017-03-29T12:05:52.988Z,200
2017-03-29T12:06:54.431Z,170
2017-03-29T12:07:55.864Z,210
2017-03-29T12:08:57.305Z,215
2017-03-29T12:09:58.748Z,230
2017-03-29T12:11:00.194Z,370
2017-03-29T12:12:01.631Z,455
2017-03-29T12:13:03.072Z,440
2017-03-29T12:14:04.510Z,400
2017-03-29T12:15:05.944Z,305
2017-03-29T12:16:07.382Z,275
2017-03-29T12:17:08.817Z,300
2017-03-29T12:18:10.254Z,200
2017-03-29T12:19:11.697Z,300
2017-03-29T12:20:13.145Z,375
2017-03-29T12:21:14.610Z,365
2017-03-29T12:22:16.016Z,400
2017-03-29T12:23:17.459Z,415
2017-03-29T12:24:18.909Z,450
2017-03-29T12:25:20.372Z,450
2017-03-29T12:26:21.819Z,425
2017-03-29T12:27:23.260Z,225
2017-03-29T12:28:24.687Z,220
2017-03-29T12:29:26.134Z,205
2017-03-29T12:30:27.573Z,260
2017-03-29T12:31:29.612Z,200
2017-03-29T12:32:31.054Z,140
2017-03-29T12:33:32.490Z,100
2017-03-29T12:34:33.927Z,110
2017-03-29T12:35:35.361Z,95
2017-03-29T12:36:36.801Z,80
2017-03-29T12:37:38.234Z,155
2017-03-29T12:38:39.676Z,200
2017-03-29T12:39:41.116Z,220
2017-03-29T12:40:43.112Z,210
2017-03-29T12:41:44.556Z,185
2017-03-29T12:42:45.990Z,160
2017-03-29T12:43:47.426Z,145
2017-03-29T12:44:48.858Z,130
2017-03-29T12:45:50.866Z,110
2017-03-29T12:46:52.298Z,100
2017-03-29T12:47:53.735Z,85
2017-03-29T12:48:55.171Z,90
2017-03-29T12:49:56.604Z,80
2017-03-29T12:50:58.048Z,65
2017-03-29T12:51:59.477Z,55
2017-03-29T12:53:00.916Z,55
2017-03-29T12:54:02.355Z,65
2017-03-29T12:55:03.799Z,65
2017-03-29T12:56:05.233Z,60
2017-03-29T12:57:06.667Z,110
2017-03-29T12:58:08.106Z,120
2017-03-29T12:59:09.547Z,135
2017-03-29T13:00:10.991Z,140
2017-03-29T13:01:12.430Z,130
2017-03-29T13:02:13.866Z,130
2017-03-29T13:03:15.314Z,130
2017-03-29T13:04:16.758Z,150
2017-03-29T13:05:18.195Z,120
2017-03-29T13:06:19.640Z,140
2017-03-29T13:07:21.072Z,145
2017-03-29T13:08:22.507Z,165
2017-03-29T13:09:23.944Z,170
2017-03-29T13:10:25.380Z,175
2017-03-29T13:11:26.822Z,190
2017-03-29T13:12:28.258Z,190
2017-03-29T13:13:29.698Z,180
2017-03-29T13:14:31.136Z,180
2017-03-29T13:15:32.570Z,185
2017-03-29T13:16:34.006Z,50
2017-03-29T13:17:35.432Z,60
2017-03-29T13:18:36.882Z,155
2017-03-29T13:19:38.313Z,100
2017-03-29T13:20:39.753Z,110
2017-03-29T13:21:41.197Z,110
2017-03-29T13:22:42.635Z,105
2017-03-29T13:23:44.070Z,85
2017-03-29T13:24:45.511Z,70
2017-03-29T13:25:46.952Z,65
2017-03-29T13:26:48.383Z,70
2017-03-29T13:27:49.815Z,80
2017-03-29T13:28:51.311Z,80
2017-03-29T13:29:52.796Z,80
2017-03-29T13:30:54.292Z,50
2017-03-29T13:31:55.756Z,80
2017-03-29T13:32:57.245Z,90
2017-03-29T13:33:58.705Z,105
2017-03-29T13:35:00.160Z,110
2017-03-29T13:36:01.652Z,100
2017-03-29T13:37:03.088Z,100
2017-03-29T13:38:04.529Z,100
2017-03-29T13:39:05.966Z,90
2017-03-29T13:40:07.405Z,95
2017-03-29T13:41:08.841Z,100
2017-03-29T13:42:10.272Z,95
2017-03-29T13:43:11.710Z,95
2017-03-29T13:44:13.148Z,95
2017-03-29T13:45:14.578Z,100
2017-03-29T13:46:16.017Z,110
2017-03-29T13:47:17.446Z,115
2017-03-29T13:48:18.886Z,115
2017-03-29T13:49:20.321Z,125
2017-03-29T13:50:21.759Z,115
2017-03-29T13:51:23.202Z,115
2017-03-29T13:52:24.653Z,115
2017-03-29T13:53:26.066Z,110
2017-03-29T13:54:27.510Z,130
2017-03-29T13:55:28.950Z,130
2017-03-29T13:56:30.384Z,135
2017-03-29T13:57:31.824Z,125
2017-03-29T13:58:33.257Z,125
2017-03-29T13:59:34.700Z,125
2017-03-29T14:00:36.137Z,130
2017-03-29T14:01:37.584Z,140
2017-03-29T14:02:39.019Z,145
2017-03-29T14:03:40.458Z,175
2017-03-29T14:04:41.895Z,135
2017-03-29T14:05:43.330Z,160
2017-03-29T14:06:44.767Z,210
2017-03-29T14:07:46.210Z,265
2017-03-29T14:08:47.865Z,365
2017-03-29T14:09:49.311Z,345
2017-03-29T14:10:50.755Z,290
2017-03-29T14:11:52.195Z,235
2017-03-29T14:12:53.634Z,215
2017-03-29T14:13:55.070Z,275
2017-03-29T14:14:56.502Z,240
2017-03-29T14:15:57.945Z,190
2017-03-29T14:16:59.373Z,185
2017-03-29T14:18:00.811Z,185
2017-03-29T14:19:02.247Z,165
2017-03-29T14:20:03.686Z,180
2017-03-29T14:21:05.122Z,170
2017-03-29T14:22:06.562Z,185
2017-03-29T14:23:07.996Z,150
2017-03-29T14:24:09.441Z,145
2017-03-29T14:25:10.887Z,165
2017-03-29T14:26:12.325Z,155
2017-03-29T14:27:13.762Z,120
2017-03-29T14:28:15.210Z,115
2017-03-29T14:29:16.654Z,90
2017-03-29T14:30:18.095Z,75
2017-03-29T14:31:19.539Z,105
2017-03-29T14:32:20.994Z,110
2017-03-29T14:33:22.425Z,120
2017-03-29T14:34:23.879Z,95
2017-03-29T14:35:25.305Z,85
2017-03-29T14:36:26.735Z,80